Time;durP1;ratioP1;P1;durP2;ratioP2;P2;SDS_P1;SDS_P2;PMS_P1;PMS_P2;Temp;Humidity;BMP_temperature;BMP_pressure;BME280_temperature;BME280_humidity;BME280_pressure;Samples;Min_cycle;Max_cycle;Signal;HPM_P1;HPM_P2
2022/11/13 00:01:53;;;;;;;12.20;10.57;;;5.60;99.90;;;;;;5053347;28;20273;-70
2022/11/13 00:04:19;;;;;;;16.10;10.67;;;5.60;99.90;;;;;;5053692;28;20537;-70
2022/11/13 00:06:45;;;;;;;14.83;10.47;;;5.60;99.90;;;;;;5053740;28;20202;-70
2022/11/13 00:09:11;;;;;;;11.23;9.43;;;5.60;99.90;;;;;;5051361;28;20228;-70
2022/11/13 00:11:37;;;;;;;12.57;10.30;;;5.50;99.90;;;;;;5053396;28;20171;-70
2022/11/13 00:14:03;;;;;;;12.07;9.77;;;5.50;99.90;;;;;;5052137;28;20243;-70
2022/11/13 00:16:29;;;;;;;13.47;9.97;;;5.40;99.90;;;;;;5051940;28;20182;-70
2022/11/13 00:18:55;;;;;;;13.87;10.37;;;5.40;99.90;;;;;;5053298;28;20205;-70
2022/11/13 00:21:23;;;;;;;15.20;10.50;;;5.30;99.90;;;;;;5053509;28;20195;-70
2022/11/13 00:23:49;;;;;;;13.33;10.37;;;5.30;99.90;;;;;;5051992;28;20175;-70
2022/11/13 00:26:18;;;;;;;11.20;10.00;;;5.20;99.90;;;;;;5052006;28;20182;-70
2022/11/13 00:28:44;;;;;;;15.07;10.77;;;5.20;99.90;;;;;;5054320;28;20198;-70
2022/11/13 00:31:12;;;;;;;12.47;9.77;;;5.20;99.90;;;;;;5051882;28;20174;-73
2022/11/13 00:33:38;;;;;;;13.57;9.53;;;5.10;99.90;;;;;;5053547;28;20631;-69
2022/11/13 00:36:06;;;;;;;12.40;9.63;;;5.10;99.90;;;;;;5051952;28;20185;-70
2022/11/13 00:38:32;;;;;;;12.93;9.30;;;5.10;99.90;;;;;;5052885;28;20202;-70
2022/11/13 00:40:58;;;;;;;14.57;9.90;;;5.00;99.90;;;;;;5052008;28;20240;-69
2022/11/13 00:43:24;;;;;;;14.03;9.90;;;5.00;99.90;;;;;;5053467;28;20232;-70
2022/11/13 00:45:50;;;;;;;17.23;10.07;;;5.00;99.90;;;;;;5051562;28;20635;-71
2022/11/13 00:48:16;;;;;;;13.57;10.50;;;5.00;99.90;;;;;;5051880;28;20570;-70
2022/11/13 00:50:42;;;;;;;13.07;10.80;;;4.90;99.90;;;;;;5053112;28;20183;-70
2022/11/13 00:53:09;;;;;;;12.47;9.87;;;4.90;99.90;;;;;;5051863;28;20190;-70
2022/11/13 00:55:34;;;;;;;13.60;9.73;;;4.90;99.90;;;;;;5051903;28;20174;-70
2022/11/13 00:58:00;;;;;;;13.30;10.00;;;4.90;99.90;;;;;;5053253;28;20209;-70
2022/11/13 01:00:26;;;;;;;10.93;9.80;;;4.90;99.90;;;;;;5052922;28;20206;-70
2022/11/13 01:02:51;;;;;;;13.87;10.70;;;4.90;99.90;;;;;;5053797;28;20167;-70
2022/11/13 01:05:17;;;;;;;12.00;9.70;;;4.90;99.90;;;;;;5053430;28;20257;-70
2022/11/13 01:07:43;;;;;;;11.23;9.70;;;4.90;99.90;;;;;;5052984;28;20202;-69
2022/11/13 01:10:09;;;;;;;13.23;9.83;;;4.90;99.90;;;;;;5053050;28;20198;-70
2022/11/13 01:12:35;;;;;;;13.30;9.50;;;4.90;99.90;;;;;;5053269;28;20182;-70
2022/11/13 01:15:01;;;;;;;16.00;9.60;;;4.90;99.90;;;;;;5051457;28;20178;-70
2022/11/13 01:17:27;;;;;;;11.23;9.73;;;4.90;99.90;;;;;;5053045;28;20217;-70
2022/11/13 01:19:53;;;;;;;13.43;10.10;;;4.90;99.90;;;;;;5052333;28;20179;-70
2022/11/13 01:22:19;;;;;;;10.17;8.97;;;4.80;99.90;;;;;;5055278;28;20540;-69
2022/11/13 01:24:45;;;;;;;12.60;9.27;;;4.80;99.90;;;;;;5055033;28;20178;-70
2022/11/13 01:27:12;;;;;;;12.50;10.20;;;4.80;99.90;;;;;;5056321;28;20190;-70
2022/11/13 01:29:37;;;;;;;10.90;9.40;;;4.80;99.90;;;;;;5055254;28;20249;-70
2022/11/13 01:32:04;;;;;;;11.10;9.97;;;4.70;99.90;;;;;;5055037;28;20290;-70
2022/11/13 01:34:29;;;;;;;12.03;9.93;;;4.70;99.90;;;;;;5054999;28;20201;-70
2022/11/13 01:36:55;;;;;;;15.17;10.13;;;4.70;99.90;;;;;;5056536;28;20679;-70
2022/11/13 01:39:21;;;;;;;16.87;10.37;;;4.60;99.90;;;;;;5056572;28;20235;-70
2022/11/13 01:41:46;;;;;;;10.50;9.37;;;4.60;99.90;;;;;;5055899;28;20526;-70
2022/11/13 01:44:15;;;;;;;10.53;9.37;;;4.60;99.90;;;;;;5055671;28;20178;-70
2022/11/13 01:46:46;;;;;;;12.20;10.03;;;4.60;99.90;;;;;;5056988;28;20167;-70
2022/11/13 01:49:21;;;;;;;11.67;9.87;;;4.60;99.90;;;;;;5056672;28;20173;-70
2022/11/13 01:52:01;;;;;;;11.63;9.50;;;4.60;99.90;;;;;;5056829;28;20168;-70
2022/11/13 01:54:39;;;;;;;12.00;10.70;;;4.60;99.90;;;;;;5056306;28;20693;-69
2022/11/13 01:57:05;;;;;;;11.10;9.73;;;4.60;99.90;;;;;;5054656;28;20206;-70
2022/11/13 01:59:38;;;;;;;12.63;9.90;;;4.60;99.90;;;;;;5055681;28;20206;-70
2022/11/13 02:02:04;;;;;;;10.97;9.07;;;4.50;99.90;;;;;;5055350;28;20189;-70
2022/11/13 02:04:31;;;;;;;11.90;9.40;;;4.50;99.90;;;;;;5055552;28;20561;-70
2022/11/13 02:07:01;;;;;;;14.37;10.23;;;4.50;99.90;;;;;;5055754;28;20187;-69
2022/11/13 02:09:32;;;;;;;13.63;10.33;;;4.50;99.90;;;;;;5054102;28;20210;-69
2022/11/13 02:11:59;;;;;;;13.97;9.57;;;4.50;99.90;;;;;;5054245;28;20177;-70
2022/11/13 02:14:28;;;;;;;11.00;9.80;;;4.50;99.90;;;;;;5055953;28;20183;-70
2022/11/13 02:17:02;;;;;;;12.93;9.97;;;4.40;99.90;;;;;;5055241;28;20195;-70
2022/11/13 02:19:39;;;;;;;11.13;9.93;;;4.30;99.90;;;;;;5055522;28;20190;-70
2022/11/13 02:22:08;;;;;;;12.87;9.97;;;4.30;99.90;;;;;;5055412;28;20162;-70
2022/11/13 02:24:39;;;;;;;10.67;9.17;;;4.20;99.90;;;;;;5055504;28;20221;-69
2022/11/13 02:27:09;;;;;;;12.23;10.13;;;4.10;99.90;;;;;;5055683;28;20570;-70
2022/11/13 02:29:35;;;;;;;14.37;10.30;;;4.00;99.90;;;;;;5055471;28;20188;-70
2022/11/13 02:32:01;;;;;;;12.30;10.17;;;4.00;99.90;;;;;;5054293;28;20178;-70
2022/11/13 02:34:27;;;;;;;12.07;9.27;;;3.90;99.90;;;;;;5055293;28;20171;-70
2022/11/13 02:36:53;;;;;;;11.90;9.97;;;3.90;99.90;;;;;;5054805;28;20201;-70
2022/11/13 02:39:18;;;;;;;11.97;9.63;;;3.80;99.90;;;;;;5054792;28;20676;-70
2022/11/13 02:41:44;;;;;;;12.83;9.53;;;3.80;99.90;;;;;;5053697;28;20170;-70
2022/11/13 02:44:10;;;;;;;13.33;10.47;;;3.80;99.90;;;;;;5055121;28;20174;-70
2022/11/13 02:46:36;;;;;;;13.37;10.20;;;3.80;99.90;;;;;;5053831;28;20186;-66
2022/11/13 02:49:02;;;;;;;12.93;9.83;;;3.80;99.90;;;;;;5054883;28;20181;-66
2022/11/13 02:51:28;;;;;;;10.67;9.37;;;3.70;99.90;;;;;;5054604;28;20174;-66
2022/11/13 02:53:54;;;;;;;11.23;10.03;;;3.70;99.90;;;;;;5054908;28;20169;-66
2022/11/13 02:56:20;;;;;;;11.60;9.13;;;3.70;99.90;;;;;;5054833;28;20174;-66
2022/11/13 02:58:46;;;;;;;11.53;9.80;;;3.70;99.90;;;;;;5053130;28;20208;-66
2022/11/13 03:01:12;;;;;;;10.70;9.57;;;3.70;99.90;;;;;;5052956;28;20190;-66
2022/11/13 03:03:38;;;;;;;10.93;9.03;;;3.70;99.90;;;;;;5054653;28;20179;-66
2022/11/13 03:06:03;;;;;;;11.97;9.60;;;3.70;99.90;;;;;;5054410;28;20197;-66
2022/11/13 03:08:29;;;;;;;11.07;9.00;;;3.70;99.90;;;;;;5054268;28;20206;-66
2022/11/13 03:10:55;;;;;;;12.70;10.00;;;3.60;99.90;;;;;;5054249;28;20174;-66
2022/11/13 03:13:21;;;;;;;13.53;10.37;;;3.60;99.90;;;;;;5054234;28;20174;-66
2022/11/13 03:15:46;;;;;;;9.90;8.90;;;3.50;99.90;;;;;;5054207;28;20537;-65
2022/11/13 03:18:13;;;;;;;11.77;10.10;;;3.40;99.90;;;;;;5052649;28;20703;-66
2022/11/13 03:20:41;;;;;;;11.37;9.73;;;3.30;99.90;;;;;;5054361;28;20178;-66
2022/11/13 03:23:07;;;;;;;11.27;10.00;;;3.30;99.90;;;;;;5053987;28;20295;-66
2022/11/13 03:25:33;;;;;;;12.93;9.50;;;3.30;99.90;;;;;;5053964;28;20206;-66
2022/11/13 03:28:00;;;;;;;10.77;9.07;;;3.30;99.90;;;;;;5053847;28;20205;-66
2022/11/13 03:30:27;;;;;;;11.80;9.97;;;3.30;99.90;;;;;;5053868;28;20186;-66
2022/11/13 03:32:56;;;;;;;12.53;9.80;;;3.40;99.90;;;;;;5053919;28;20523;-66
2022/11/13 03:35:23;;;;;;;11.50;9.73;;;3.40;99.90;;;;;;5054099;28;20174;-66
2022/11/13 03:37:49;;;;;;;13.40;9.90;;;3.40;99.90;;;;;;5053745;28;20256;-66
2022/11/13 03:40:15;;;;;;;9.70;8.70;;;3.40;99.90;;;;;;5052391;28;20202;-66
2022/11/13 03:42:41;;;;;;;12.30;9.90;;;3.50;99.90;;;;;;5052289;28;20232;-65
2022/11/13 03:45:07;;;;;;;11.80;9.70;;;3.40;99.90;;;;;;5051407;28;20174;-66
2022/11/13 03:47:33;;;;;;;10.90;9.80;;;3.40;99.90;;;;;;5053562;28;20255;-65
2022/11/13 03:49:59;;;;;;;11.33;9.67;;;3.40;99.90;;;;;;5053611;28;20642;-66
2022/11/13 03:52:24;;;;;;;13.00;9.77;;;3.40;99.90;;;;;;5053945;28;20174;-66
2022/11/13 03:54:50;;;;;;;15.10;10.43;;;3.40;99.90;;;;;;5053526;28;20170;-66
2022/11/13 03:57:16;;;;;;;10.97;9.10;;;3.40;99.90;;;;;;5053359;28;20598;-66
2022/11/13 03:59:42;;;;;;;10.33;9.33;;;3.40;99.90;;;;;;5053463;28;20185;-66
2022/11/13 04:02:07;;;;;;;9.60;8.60;;;3.40;99.90;;;;;;5053194;28;20190;-68
2022/11/13 04:04:33;;;;;;;12.67;9.73;;;3.40;99.90;;;;;;5053426;28;20178;-66
2022/11/13 04:06:59;;;;;;;14.20;9.67;;;3.30;99.90;;;;;;5053242;28;20198;-66
2022/11/13 04:09:25;;;;;;;11.07;9.53;;;3.40;99.90;;;;;;5053602;28;20515;-66
2022/11/13 04:11:50;;;;;;;9.97;8.97;;;3.40;99.90;;;;;;5053326;28;20182;-65
2022/11/13 04:14:16;;;;;;;13.13;9.67;;;3.30;99.90;;;;;;5053338;28;20265;-66
2022/11/13 04:16:42;;;;;;;10.97;9.27;;;3.30;99.90;;;;;;5053212;28;20182;-66
2022/11/13 04:19:07;;;;;;;11.33;9.63;;;3.30;99.90;;;;;;5053273;28;20209;-66
2022/11/13 04:21:33;;;;;;;11.03;8.97;;;3.20;99.90;;;;;;5053301;28;20257;-65
2022/11/13 04:23:59;;;;;;;14.03;9.60;;;3.10;99.90;;;;;;5051982;28;20179;-66
2022/11/13 04:26:25;;;;;;;10.13;9.07;;;3.00;99.90;;;;;;5053452;28;20631;-66
2022/11/13 04:28:50;;;;;;;10.73;8.77;;;3.00;99.90;;;;;;5053468;28;20182;-65
2022/11/13 04:31:16;;;;;;;9.77;8.47;;;2.90;99.90;;;;;;5053042;28;20192;-66
2022/11/13 04:33:42;;;;;;;10.07;8.63;;;2.80;99.90;;;;;;5051882;28;20594;-66
2022/11/13 04:36:08;;;;;;;13.10;9.40;;;2.80;99.90;;;;;;5053410;28;20182;-66
2022/11/13 04:38:33;;;;;;;12.70;9.60;;;2.80;99.90;;;;;;5052852;28;20285;-66
2022/11/13 04:44:03;;;;;;;16.73;9.30;;;2.90;99.90;;;;;;5071246;28;20661;-66
2022/11/13 04:46:29;;;;;;;10.77;9.30;;;2.80;99.90;;;;;;5071010;28;20265;-66
2022/11/13 04:48:55;;;;;;;11.90;9.70;;;2.70;99.90;;;;;;5062968;28;20186;-66
2022/11/13 04:51:20;;;;;;;10.00;9.00;;;2.60;99.90;;;;;;5053043;28;20179;-66
2022/11/13 04:53:46;;;;;;;11.00;9.43;;;2.60;99.90;;;;;;5052976;28;20258;-66
2022/11/13 04:56:12;;;;;;;10.63;9.53;;;2.60;99.90;;;;;;5055427;28;20719;-66
2022/11/13 04:58:38;;;;;;;11.10;9.63;;;2.60;99.90;;;;;;5056733;28;20206;-66
2022/11/13 05:01:03;;;;;;;12.67;9.67;;;2.60;99.90;;;;;;5055254;28;20190;-67
2022/11/13 05:03:29;;;;;;;10.33;9.10;;;2.60;99.90;;;;;;5057067;28;20170;-66
2022/11/13 05:06:06;;;;;;;10.90;9.03;;;2.50;99.90;;;;;;5056652;28;20274;-66
2022/11/13 05:08:32;;;;;;;12.60;9.87;;;2.50;99.90;;;;;;5056686;28;20250;-66
2022/11/13 05:10:59;;;;;;;10.87;9.43;;;2.50;99.90;;;;;;5056855;28;20183;-65
2022/11/13 05:13:26;;;;;;;14.40;9.80;;;2.50;99.90;;;;;;5055160;28;20545;-65
2022/11/13 05:16:01;;;;;;;11.73;9.70;;;2.50;99.90;;;;;;5056588;28;20194;-65
2022/11/13 05:18:27;;;;;;;10.30;9.17;;;2.50;99.90;;;;;;5056266;28;20335;-65
2022/11/13 05:20:53;;;;;;;11.47;9.03;;;2.60;99.90;;;;;;5056450;28;20213;-66
2022/11/13 05:23:18;;;;;;;10.40;9.20;;;2.60;99.90;;;;;;5055203;28;20640;-66
2022/11/13 05:25:44;;;;;;;11.20;8.90;;;2.60;99.90;;;;;;5055030;28;20183;-66
2022/11/13 05:28:10;;;;;;;9.97;8.97;;;2.50;99.90;;;;;;5056321;28;20202;-66
2022/11/13 05:30:35;;;;;;;10.67;8.90;;;2.50;99.90;;;;;;5056101;28;20186;-66
2022/11/13 05:33:01;;;;;;;12.53;9.60;;;2.40;99.90;;;;;;5056155;28;20256;-66
2022/11/13 05:35:27;;;;;;;10.50;9.40;;;2.40;99.90;;;;;;5054859;28;20689;-65
2022/11/13 05:37:53;;;;;;;11.07;9.27;;;2.30;99.90;;;;;;5055960;28;20640;-66
2022/11/13 05:40:18;;;;;;;11.83;9.93;;;2.30;99.90;;;;;;5055823;28;20185;-66
2022/11/13 05:42:44;;;;;;;10.87;9.67;;;2.30;99.90;;;;;;5056500;28;20225;-66
2022/11/13 05:45:10;;;;;;;11.63;9.33;;;2.20;99.90;;;;;;5056434;28;20577;-66
2022/11/13 05:47:35;;;;;;;12.07;9.60;;;2.20;99.90;;;;;;5055757;28;20214;-66
2022/11/13 05:50:01;;;;;;;10.43;9.43;;;2.30;99.90;;;;;;5055865;28;20174;-69
2022/11/13 05:52:27;;;;;;;10.90;9.73;;;2.30;99.90;;;;;;5056178;28;20183;-66
2022/11/13 05:54:53;;;;;;;10.70;9.57;;;2.30;99.90;;;;;;5055746;28;20544;-65
2022/11/13 05:57:18;;;;;;;12.43;9.80;;;2.30;99.90;;;;;;5056136;28;20206;-66
2022/11/13 05:59:44;;;;;;;12.80;9.47;;;2.20;99.90;;;;;;5055717;28;20175;-66
2022/11/13 06:02:10;;;;;;;10.10;8.97;;;2.10;99.90;;;;;;5055442;28;20194;-66
2022/11/13 06:04:37;;;;;;;11.47;9.00;;;2.20;99.90;;;;;;5055888;28;20213;-66
2022/11/13 06:07:02;;;;;;;11.67;9.27;;;2.10;99.90;;;;;;5054337;28;20198;-66
2022/11/13 06:09:28;;;;;;;11.67;9.67;;;2.10;99.90;;;;;;5055434;28;20341;-66
2022/11/13 06:11:54;;;;;;;9.80;8.80;;;2.20;99.90;;;;;;5055507;28;20181;-67
2022/11/13 06:14:19;;;;;;;10.93;9.70;;;2.20;99.90;;;;;;5055381;28;20202;-67
2022/11/13 06:16:45;;;;;;;11.53;9.80;;;2.20;99.90;;;;;;5055115;28;20770;-66
2022/11/13 06:19:11;;;;;;;10.80;8.77;;;2.20;99.90;;;;;;5055058;28;20256;-66
2022/11/13 06:21:38;;;;;;;11.40;9.33;;;2.20;99.90;;;;;;5053958;28;20661;-69
2022/11/13 06:24:05;;;;;;;10.87;9.57;;;2.10;99.90;;;;;;5055470;28;20175;-69
2022/11/13 06:26:33;;;;;;;10.17;9.17;;;2.10;99.90;;;;;;5054733;28;20171;-72
2022/11/13 06:29:01;;;;;;;10.77;9.50;;;2.00;99.90;;;;;;5055053;28;20183;-70
2022/11/13 06:31:29;;;;;;;12.17;9.30;;;2.00;99.90;;;;;;5053585;28;20643;-70
2022/11/13 06:33:57;;;;;;;10.97;9.23;;;2.00;99.90;;;;;;5053647;28;20192;-69
2022/11/13 06:36:26;;;;;;;13.00;9.53;;;2.10;99.90;;;;;;5055436;28;20666;-68
2022/11/13 06:38:52;;;;;;;12.63;9.80;;;2.10;99.90;;;;;;5053410;28;20206;-69
2022/11/13 06:41:23;;;;;;;12.30;9.80;;;2.10;99.90;;;;;;5053612;28;20205;-69
2022/11/13 06:43:49;;;;;;;11.27;9.13;;;2.00;99.90;;;;;;5054809;28;20171;-69
2022/11/13 06:46:17;;;;;;;10.67;9.57;;;1.90;99.90;;;;;;5053338;28;20178;-69
2022/11/13 06:48:43;;;;;;;12.60;10.03;;;1.90;99.90;;;;;;5053337;28;20199;-69
2022/11/13 06:51:16;;;;;;;9.93;8.93;;;1.90;99.90;;;;;;5053387;28;20182;-70
2022/11/13 06:53:42;;;;;;;10.53;8.70;;;2.00;99.90;;;;;;5053354;28;20186;-69
2022/11/13 06:56:08;;;;;;;13.43;10.30;;;2.00;99.90;;;;;;5053244;28;20205;-69
2022/11/13 06:58:34;;;;;;;13.73;10.83;;;2.10;99.90;;;;;;5053052;28;20647;-69
2022/11/13 07:01:07;;;;;;;11.17;9.97;;;2.10;99.90;;;;;;5054648;28;20221;-69
2022/11/13 07:03:33;;;;;;;15.47;9.60;;;2.10;99.90;;;;;;5054627;28;20253;-69
2022/11/13 07:06:08;;;;;;;10.50;9.40;;;2.20;99.90;;;;;;5053129;28;20220;-69
2022/11/13 07:08:34;;;;;;;9.97;8.97;;;2.20;99.90;;;;;;5052910;28;20769;-70
2022/11/13 07:11:00;;;;;;;11.20;9.87;;;2.20;99.90;;;;;;5052930;28;20209;-71
2022/11/13 07:13:27;;;;;;;10.63;9.47;;;2.30;99.90;;;;;;5052982;28;20261;-71
2022/11/13 07:15:53;;;;;;;10.77;9.67;;;2.30;99.90;;;;;;5052812;28;20221;-69
2022/11/13 07:18:21;;;;;;;13.07;9.90;;;2.40;99.90;;;;;;5053718;28;20238;-69
2022/11/13 07:20:47;;;;;;;11.63;9.33;;;2.40;99.90;;;;;;5052814;28;20182;-69
2022/11/13 07:23:13;;;;;;;11.07;9.67;;;2.50;99.90;;;;;;5054021;28;20190;-69
2022/11/13 07:25:38;;;;;;;14.83;10.20;;;2.40;99.90;;;;;;5052726;28;20170;-72
2022/11/13 07:28:04;;;;;;;15.67;9.77;;;2.40;99.90;;;;;;5053832;28;20198;-69
2022/11/13 07:30:30;;;;;;;11.37;10.10;;;2.30;99.90;;;;;;5052385;28;20181;-71
2022/11/13 07:32:55;;;;;;;11.47;10.27;;;2.30;99.90;;;;;;5053751;28;20179;-69
2022/11/13 07:35:21;;;;;;;14.83;10.47;;;2.40;99.90;;;;;;5052794;28;20178;-69
2022/11/13 07:37:47;;;;;;;11.70;10.33;;;2.50;99.90;;;;;;5053870;28;20206;-69
2022/11/13 07:40:12;;;;;;;11.80;10.30;;;2.50;99.90;;;;;;5053673;28;20185;-69
2022/11/13 07:42:39;;;;;;;13.20;10.77;;;2.60;99.90;;;;;;5053914;28;20189;-71
2022/11/13 07:45:05;;;;;;;12.40;10.57;;;2.70;99.90;;;;;;5053907;28;20254;-71
2022/11/13 07:47:31;;;;;;;11.80;9.17;;;2.80;99.90;;;;;;5053341;28;20202;-71
2022/11/13 07:49:57;;;;;;;11.47;10.37;;;2.80;99.90;;;;;;5053622;28;20179;-71
2022/11/13 07:52:22;;;;;;;14.57;10.60;;;2.80;99.90;;;;;;5053835;28;20202;-71
2022/11/13 07:54:48;;;;;;;11.60;10.50;;;2.90;99.90;;;;;;5052245;28;20182;-71
2022/11/13 07:57:14;;;;;;;17.00;11.17;;;2.90;99.90;;;;;;5053830;28;20678;-71
2022/11/13 07:59:39;;;;;;;13.20;11.07;;;2.90;99.90;;;;;;5053402;28;20251;-71
2022/11/13 08:02:08;;;;;;;13.00;11.03;;;2.90;99.90;;;;;;5053230;28;20185;-70
2022/11/13 08:04:33;;;;;;;14.00;10.87;;;3.00;99.90;;;;;;5053821;28;20178;-71
2022/11/13 08:06:59;;;;;;;14.60;11.30;;;3.00;99.90;;;;;;5053457;28;20566;-71
2022/11/13 08:09:25;;;;;;;13.47;11.30;;;3.00;99.90;;;;;;5053380;28;20674;-68
2022/11/13 08:11:50;;;;;;;12.90;10.73;;;3.00;99.90;;;;;;5053423;28;20220;-68
2022/11/13 08:14:16;;;;;;;13.13;11.63;;;3.10;99.90;;;;;;5053445;28;20236;-69
2022/11/13 08:16:42;;;;;;;11.60;10.47;;;3.10;99.90;;;;;;5052237;28;20572;-67
2022/11/13 08:19:08;;;;;;;14.80;10.17;;;3.10;99.90;;;;;;5053115;28;20210;-68
2022/11/13 08:21:34;;;;;;;11.33;10.03;;;3.10;99.90;;;;;;5053210;28;20217;-67
2022/11/13 08:24:00;;;;;;;12.73;10.87;;;3.10;99.90;;;;;;5053182;28;20178;-67
2022/11/13 08:26:26;;;;;;;11.33;10.07;;;3.20;99.90;;;;;;5053321;28;20201;-67
2022/11/13 08:28:52;;;;;;;11.07;9.93;;;3.20;99.90;;;;;;5051858;28;20179;-69
2022/11/13 08:31:17;;;;;;;12.40;11.10;;;3.30;99.90;;;;;;5054610;28;20269;-67
2022/11/13 08:33:43;;;;;;;12.53;10.83;;;3.30;99.90;;;;;;5057307;28;20597;-68
2022/11/13 08:36:10;;;;;;;12.20;11.00;;;3.40;99.90;;;;;;5057492;28;20189;-69
2022/11/13 08:38:36;;;;;;;14.40;11.03;;;3.40;99.90;;;;;;5057054;28;20253;-69
2022/11/13 08:41:04;;;;;;;11.60;10.40;;;3.50;99.90;;;;;;5057421;28;20189;-69
2022/11/13 08:43:30;;;;;;;14.77;9.43;;;3.50;99.90;;;;;;5055751;28;20639;-69
2022/11/13 08:45:56;;;;;;;15.27;10.10;;;3.60;99.90;;;;;;5057376;28;20186;-69
2022/11/13 08:48:23;;;;;;;10.40;9.40;;;3.60;99.90;;;;;;5057148;28;20268;-69
2022/11/13 08:50:56;;;;;;;13.93;10.10;;;3.70;99.90;;;;;;5055598;28;20186;-69
2022/11/13 08:53:23;;;;;;;10.20;9.20;;;3.70;99.90;;;;;;5057149;28;20208;-69
2022/11/13 08:55:49;;;;;;;13.43;9.97;;;3.80;99.90;;;;;;5056823;28;20239;-69
2022/11/13 08:58:15;;;;;;;10.13;9.00;;;3.90;99.90;;;;;;5055417;28;20214;-69
2022/11/13 09:00:40;;;;;;;10.07;9.03;;;4.00;99.90;;;;;;5056487;28;20678;-69
2022/11/13 09:03:08;;;;;;;10.90;9.80;;;4.10;99.90;;;;;;5055359;28;20218;-69
2022/11/13 09:05:33;;;;;;;11.10;8.87;;;4.20;99.90;;;;;;5056649;28;20544;-69
2022/11/13 09:08:00;;;;;;;10.20;9.03;;;4.40;99.90;;;;;;5056577;28;20213;-69
2022/11/13 09:10:26;;;;;;;10.77;8.63;;;4.60;99.90;;;;;;5057104;28;20183;-69
2022/11/13 09:13:00;;;;;;;10.63;8.53;;;4.70;99.90;;;;;;5056557;28;20213;-69
2022/11/13 09:15:27;;;;;;;9.90;8.47;;;4.90;99.90;;;;;;5056476;28;20623;-69
2022/11/13 09:18:00;;;;;;;12.00;8.20;;;5.00;99.90;;;;;;5056113;28;20248;-69
2022/11/13 09:20:28;;;;;;;10.17;8.67;;;5.20;99.90;;;;;;5056337;28;20166;-69
2022/11/13 09:23:06;;;;;;;11.67;8.57;;;5.40;99.90;;;;;;5054999;28;20185;-69
2022/11/13 09:25:34;;;;;;;9.03;8.10;;;5.50;99.90;;;;;;5056238;28;20178;-69
2022/11/13 09:28:00;;;;;;;9.80;8.00;;;5.70;99.90;;;;;;5056373;28;20213;-69
2022/11/13 09:30:28;;;;;;;12.37;8.60;;;5.80;99.90;;;;;;5056103;28;20545;-69
2022/11/13 09:32:56;;;;;;;13.60;8.50;;;6.00;99.90;;;;;;5056020;28;20573;-69
2022/11/13 09:35:35;;;;;;;8.80;7.90;;;6.20;99.90;;;;;;5056347;28;20204;-69
2022/11/13 09:38:03;;;;;;;12.27;7.97;;;6.40;99.90;;;;;;5054671;28;20209;-69
2022/11/13 09:41:08;;;;;;;8.67;7.23;;;6.60;99.90;;;;;;5055954;28;20257;-69
2022/11/13 09:43:49;;;;;;;9.07;7.77;;;6.80;99.90;;;;;;5054570;28;20273;-69
2022/11/13 09:46:31;;;;;;;9.17;8.10;;;7.10;99.90;;;;;;5054404;28;20269;-69
2022/11/13 09:49:21;;;;;;;9.57;7.37;;;7.30;99.90;;;;;;5055833;28;20163;-69
2022/11/13 09:51:58;;;;;;;7.70;6.93;;;7.50;99.90;;;;;;5055086;28;20195;-69
2022/11/13 09:54:23;;;;;;;8.00;6.70;;;7.70;99.90;;;;;;5056001;28;20167;-69
2022/11/13 09:57:13;;;;;;;7.70;6.90;;;7.90;99.90;;;;;;5055616;28;20697;-69
2022/11/13 09:59:42;;;;;;;7.17;6.37;;;8.10;99.90;;;;;;5055858;28;20652;-69
2022/11/13 10:02:07;;;;;;;8.43;6.20;;;8.20;99.90;;;;;;5055256;28;20197;-69
2022/11/13 10:05:11;;;;;;;6.10;5.50;;;8.30;99.90;;;;;;5055498;28;20174;-69
2022/11/13 10:07:45;;;;;;;8.17;6.37;;;8.60;99.90;;;;;;5055565;28;20240;-69
2022/11/13 10:10:33;;;;;;;9.40;6.67;;;8.80;99.90;;;;;;5055425;28;20173;-69
2022/11/13 10:12:59;;;;;;;5.90;5.40;;;9.00;99.90;;;;;;5055426;28;20214;-69
2022/11/13 10:15:26;;;;;;;6.47;5.50;;;9.20;99.90;;;;;;5055356;28;20216;-69
2022/11/13 10:18:16;;;;;;;5.83;5.27;;;9.40;99.90;;;;;;5053821;28;20679;-69
2022/11/13 10:20:56;;;;;;;5.67;5.17;;;9.60;99.90;;;;;;5056622;28;20616;-69
2022/11/13 10:23:30;;;;;;;6.40;5.80;;;9.80;99.90;;;;;;5055464;28;20151;-69
2022/11/13 10:26:10;;;;;;;6.43;5.50;;;10.00;99.90;;;;;;5055374;28;20504;-69
2022/11/13 10:28:38;;;;;;;6.97;5.70;;;10.20;99.90;;;;;;5053807;28;20225;-69
2022/11/13 10:31:03;;;;;;;6.33;5.23;;;10.50;99.90;;;;;;5054892;28;20177;-69
2022/11/13 10:33:29;;;;;;;6.23;5.47;;;10.60;99.90;;;;;;5055551;28;20253;-69
2022/11/13 10:36:13;;;;;;;5.47;4.90;;;10.80;99.90;;;;;;5055444;28;20678;-69
2022/11/13 10:38:48;;;;;;;5.43;4.90;;;11.10;99.90;;;;;;5054815;28;20678;-69
2022/11/13 10:41:19;;;;;;;5.73;5.00;;;11.20;99.90;;;;;;5055115;28;20243;-69
2022/11/13 10:44:03;;;;;;;5.33;4.63;;;11.50;99.90;;;;;;5055039;28;20162;-69
2022/11/13 10:46:30;;;;;;;5.10;4.60;;;11.60;99.90;;;;;;5054655;28;20595;-69
2022/11/13 10:48:56;;;;;;;5.30;4.80;;;11.90;99.90;;;;;;5054778;28;20177;-70
2022/11/13 10:51:22;;;;;;;5.22;4.72;;;12.10;99.90;;;;;;5054712;28;20187;-70
2022/11/13 10:53:48;;;;;;;5.65;5.03;;;12.30;99.90;;;;;;5053691;28;20193;-70
2022/11/13 10:56:40;;;;;;;5.90;4.57;;;12.40;99.90;;;;;;5053135;28;20179;-70
2022/11/13 10:59:15;;;;;;;6.50;4.97;;;12.60;99.90;;;;;;5053889;28;20279;-68
2022/11/13 11:01:42;;;;;;;6.00;4.88;;;12.70;99.90;;;;;;5054300;28;20190;-68
2022/11/13 11:04:28;;;;;;;5.72;5.13;;;12.80;99.90;;;;;;5054537;28;20201;-68
2022/11/13 11:06:54;;;;;;;5.57;5.07;;;13.00;99.90;;;;;;5052919;28;20567;-68
2022/11/13 11:09:23;;;;;;;9.95;8.90;;;13.00;99.90;;;;;;5052746;28;20190;-68
2022/11/13 11:12:17;;;;;;;7.00;5.45;;;13.20;99.90;;;;;;5054007;28;20185;-68
2022/11/13 11:14:58;;;;;;;8.00;5.05;;;13.40;99.90;;;;;;5052845;28;20174;-68
2022/11/13 11:17:43;;;;;;;4.55;4.15;;;13.50;99.90;;;;;;5053782;28;20194;-68
2022/11/13 11:20:20;;;;;;;5.03;4.55;;;13.70;99.90;;;;;;5052788;28;20318;-68
2022/11/13 11:22:51;;;;;;;4.95;4.45;;;13.80;99.90;;;;;;5052612;28;20170;-68
2022/11/13 11:25:32;;;;;;;6.05;4.80;;;14.10;99.90;;;;;;5052791;28;20627;-68
2022/11/13 11:28:14;;;;;;;6.22;4.57;;;14.20;99.90;;;;;;5054408;28;20533;-68
2022/11/13 11:30:51;;;;;;;4.60;4.20;;;14.40;99.90;;;;;;5054458;28;20170;-68
2022/11/13 11:33:20;;;;;;;5.38;4.38;;;14.50;99.90;;;;;;5052867;28;20181;-69
2022/11/13 11:36:12;;;;;;;4.85;4.35;;;14.70;99.90;;;;;;5054135;28;20181;-68
2022/11/13 11:38:52;;;;;;;5.05;4.15;;;14.90;99.90;;;;;;5052957;28;20612;-68
2022/11/13 11:41:28;;;;;;;4.13;3.78;;;15.00;99.90;;;;;;5054028;28;20155;-67
2022/11/13 11:44:24;;;;;;;5.65;3.60;;;15.20;99.90;;;;;;5053955;28;20158;-69
2022/11/13 11:46:50;;;;;;;5.90;3.92;;;15.50;99.90;;;;;;5051457;28;20230;-68
2022/11/13 11:49:16;;;;;;;5.60;4.10;;;15.80;99.90;;;;;;5053550;28;20557;-68
2022/11/13 11:51:57;;;;;;;4.18;3.80;;;15.90;99.90;;;;;;5053857;28;20689;-68
2022/11/13 11:54:28;;;;;;;4.20;3.80;;;16.00;99.90;;;;;;5053572;28;20162;-68
2022/11/13 11:57:12;;;;;;;4.40;3.90;;;16.20;99.90;;;;;;5053499;28;20293;-68
2022/11/13 12:00:04;;;;;;;3.78;3.47;;;16.40;99.90;;;;;;5053588;28;20194;-69
2022/11/13 12:02:51;;;;;;;3.88;3.53;;;16.60;99.90;;;;;;5052655;28;20189;-69
2022/11/13 12:05:44;;;;;;;3.80;3.50;;;16.60;99.90;;;;;;5053191;28;20165;-68
2022/11/13 12:08:18;;;;;;;3.97;3.58;;;16.80;99.90;;;;;;5053632;28;20194;-68
2022/11/13 12:10:59;;;;;;;4.25;3.38;;;16.90;99.90;;;;;;5053791;28;20166;-69
2022/11/13 12:13:46;;;;;;;4.75;3.60;;;16.90;99.90;;;;;;5052817;28;20178;-68
2022/11/13 12:16:19;;;;;;;4.30;3.72;;;17.00;99.90;;;;;;5053721;28;20612;-68
2022/11/13 12:19:03;;;;;;;4.20;3.67;;;17.10;99.90;;;;;;5052329;28;20202;-68
2022/11/13 12:22:16;;;;;;;4.82;3.58;;;17.30;99.90;;;;;;5052488;28;20247;-68
2022/11/13 12:24:42;;;;;;;4.22;3.80;;;17.40;99.90;;;;;;5052144;28;20583;-68
2022/11/13 12:27:17;;;;;;;5.32;4.22;;;17.40;99.90;;;;;;5052419;28;20209;-68
2022/11/13 12:30:09;;;;;;;4.72;3.88;;;17.40;99.90;;;;;;5053608;28;20607;-67
2022/11/13 12:32:44;;;;;;;6.20;5.13;;;17.60;99.90;;;;;;5053292;28;20162;-69
2022/11/13 12:35:19;;;;;;;9.65;5.47;;;17.50;99.90;;;;;;5053136;28;20178;-68
2022/11/13 12:38:10;;;;;;;7.30;5.70;;;17.50;99.90;;;;;;5053313;28;20633;-68
2022/11/13 12:40:50;;;;;;;9.43;5.43;;;17.50;99.90;;;;;;5051827;28;20170;-68
2022/11/13 12:44:05;;;;;;;8.40;5.93;;;17.50;99.90;;;;;;5053323;28;20245;-68
2022/11/13 12:46:37;;;;;;;8.10;5.47;;;17.50;99.90;;;;;;5049104;28;20194;-68
2022/11/13 12:49:22;;;;;;;7.05;5.25;;;17.50;99.90;;;;;;5053063;28;20651;-69
2022/11/13 12:51:57;;;;;;;7.47;5.75;;;17.40;99.90;;;;;;5053093;28;20162;-68
2022/11/13 12:54:31;;;;;;;6.85;5.30;;;17.40;99.90;;;;;;5053329;28;20158;-68
2022/11/13 12:57:13;;;;;;;7.07;4.28;;;17.30;99.90;;;;;;5053101;28;20194;-68
2022/11/13 12:59:46;;;;;;;5.75;4.68;;;17.20;99.90;;;;;;5052850;28;20198;-70
2022/11/13 13:02:51;;;;;;;5.38;4.03;;;17.20;99.90;;;;;;5052726;28;20191;-69